sensor_id;sensor_type;location;lat;lon;timestamp;pressure;altitude;pressure_sealevel;temperature;humidity
19576;BME280;41589;51.196;7.074;2024-01-10T00:03:54;100176.19;;;-1.34;42.46
19576;BME280;41589;51.196;7.074;2024-01-10T00:08:54;100179.47;;;-1.28;42.06
19576;BME280;41589;51.196;7.074;2024-01-10T00:13:55;100177.59;;;-1.24;41.81
19576;BME280;41589;51.196;7.074;2024-01-10T00:18:59;100183.03;;;-1.12;42.18
19576;BME280;41589;51.196;7.074;2024-01-10T00:24:00;100174.13;;;-1.05;42.52
19576;BME280;41589;51.196;7.074;2024-01-10T00:29:00;100171.53;;;-1.14;41.94
19576;BME280;41589;51.196;7.074;2024-01-10T00:34:00;100153.19;;;-1.22;42.19
19576;BME280;41589;51.196;7.074;2024-01-10T00:39:01;100155.50;;;-1.24;42.42
19576;BME280;41589;51.196;7.074;2024-01-10T00:44:01;100144.44;;;-1.24;41.98
19576;BME280;41589;51.196;7.074;2024-01-10T00:49:02;100140.44;;;-1.27;42.33
19576;BME280;41589;51.196;7.074;2024-01-10T00:54:02;100142.06;;;-1.26;42.34
19576;BME280;41589;51.196;7.074;2024-01-10T00:59:02;100133.84;;;-1.22;42.21
19576;BME280;41589;51.196;7.074;2024-01-10T01:04:03;100132.84;;;-1.30;42.13
19576;BME280;41589;51.196;7.074;2024-01-10T01:09:03;100132.72;;;-1.37;42.13
19576;BME280;41589;51.196;7.074;2024-01-10T01:14:04;100130.03;;;-1.33;42.36
19576;BME280;41589;51.196;7.074;2024-01-10T01:19:04;100122.09;;;-1.35;41.92
19576;BME280;41589;51.196;7.074;2024-01-10T01:24:04;100122.25;;;-1.28;42.05
19576;BME280;41589;51.196;7.074;2024-01-10T01:29:05;100120.22;;;-1.31;41.75
19576;BME280;41589;51.196;7.074;2024-01-10T01:34:05;100112.28;;;-1.32;41.72
19576;BME280;41589;51.196;7.074;2024-01-10T01:39:06;100108.53;;;-1.24;42.29
19576;BME280;41589;51.196;7.074;2024-01-10T01:44:06;100107.72;;;-1.25;41.76
19576;BME280;41589;51.196;7.074;2024-01-10T01:49:06;100100.25;;;-1.24;42.10
19576;BME280;41589;51.196;7.074;2024-01-10T01:54:08;100100.81;;;-1.34;41.51
19576;BME280;41589;51.196;7.074;2024-01-10T01:59:14;100097.53;;;-1.56;40.63
19576;BME280;41589;51.196;7.074;2024-01-10T02:04:14;100086.59;;;-1.68;41.20
19576;BME280;41589;51.196;7.074;2024-01-10T02:09:15;100087.03;;;-1.66;41.57
19576;BME280;41589;51.196;7.074;2024-01-10T02:14:15;100068.75;;;-1.55;41.47
19576;BME280;41589;51.196;7.074;2024-01-10T02:19:21;100071.88;;;-1.56;41.16
19576;BME280;41589;51.196;7.074;2024-01-10T02:24:22;100061.44;;;-1.63;40.61
19576;BME280;41589;51.196;7.074;2024-01-10T02:29:22;100067.84;;;-1.43;40.81
19576;BME280;41589;51.196;7.074;2024-01-10T02:34:24;100062.38;;;-1.24;41.18
19576;BME280;41589;51.196;7.074;2024-01-10T02:39:24;100070.88;;;-1.13;41.00
19576;BME280;41589;51.196;7.074;2024-01-10T02:44:24;100063.19;;;-1.04;41.25
19576;BME280;41589;51.196;7.074;2024-01-10T02:49:25;100075.78;;;-0.87;41.26
19576;BME280;41589;51.196;7.074;2024-01-10T02:54:25;100059.34;;;-0.80;41.18
19576;BME280;41589;51.196;7.074;2024-01-10T02:59:26;100072.81;;;-0.78;41.09
19576;BME280;41589;51.196;7.074;2024-01-10T03:04:26;100077.91;;;-0.80;41.13
19576;BME280;41589;51.196;7.074;2024-01-10T03:09:26;100075.28;;;-0.93;40.76
19576;BME280;41589;51.196;7.074;2024-01-10T03:14:27;100067.72;;;-0.96;40.79
19576;BME280;41589;51.196;7.074;2024-01-10T03:19:27;100058.16;;;-0.98;41.13
19576;BME280;41589;51.196;7.074;2024-01-10T03:24:27;100050.25;;;-1.00;40.91
19576;BME280;41589;51.196;7.074;2024-01-10T03:29:28;100053.00;;;-1.00;41.21
19576;BME280;41589;51.196;7.074;2024-01-10T03:34:28;100066.09;;;-0.97;41.38
19576;BME280;41589;51.196;7.074;2024-01-10T03:39:28;100066.41;;;-1.02;41.08
19576;BME280;41589;51.196;7.074;2024-01-10T03:44:29;100062.16;;;-1.15;40.93
19576;BME280;41589;51.196;7.074;2024-01-10T03:49:29;100067.59;;;-1.19;40.95
19576;BME280;41589;51.196;7.074;2024-01-10T03:54:29;100068.06;;;-1.17;41.22
19576;BME280;41589;51.196;7.074;2024-01-10T03:59:30;100071.16;;;-1.18;41.45
19576;BME280;41589;51.196;7.074;2024-01-10T04:04:30;100079.91;;;-1.16;41.22
19576;BME280;41589;51.196;7.074;2024-01-10T04:09:30;100074.22;;;-1.23;41.16
19576;BME280;41589;51.196;7.074;2024-01-10T04:14:30;100064.75;;;-1.22;41.67
19576;BME280;41589;51.196;7.074;2024-01-10T04:19:31;100062.38;;;-1.24;41.48
19576;BME280;41589;51.196;7.074;2024-01-10T04:24:31;100070.13;;;-1.29;41.30
19576;BME280;41589;51.196;7.074;2024-01-10T04:29:31;100067.72;;;-1.31;41.48
19576;BME280;41589;51.196;7.074;2024-01-10T04:34:32;100060.34;;;-1.43;40.90
19576;BME280;41589;51.196;7.074;2024-01-10T04:39:34;100051.47;;;-1.52;41.71
19576;BME280;41589;51.196;7.074;2024-01-10T04:44:34;100046.78;;;-1.67;41.34
19576;BME280;41589;51.196;7.074;2024-01-10T04:49:34;100048.00;;;-1.64;41.79
19576;BME280;41589;51.196;7.074;2024-01-10T04:54:35;100056.22;;;-1.68;41.96
19576;BME280;41589;51.196;7.074;2024-01-10T04:59:35;100063.16;;;-1.74;41.47
19576;BME280;41589;51.196;7.074;2024-01-10T05:04:35;100056.47;;;-1.73;41.63
19576;BME280;41589;51.196;7.074;2024-01-10T05:09:36;100058.53;;;-1.86;41.21
19576;BME280;41589;51.196;7.074;2024-01-10T05:14:37;100060.22;;;-1.81;42.01
19576;BME280;41589;51.196;7.074;2024-01-10T05:19:37;100056.84;;;-1.75;41.72
19576;BME280;41589;51.196;7.074;2024-01-10T05:24:37;100060.22;;;-1.81;41.39
19576;BME280;41589;51.196;7.074;2024-01-10T05:29:37;100056.28;;;-1.80;41.69
19576;BME280;41589;51.196;7.074;2024-01-10T05:34:38;100053.19;;;-1.79;41.89
19576;BME280;41589;51.196;7.074;2024-01-10T05:39:38;100052.72;;;-1.65;41.82
19576;BME280;41589;51.196;7.074;2024-01-10T05:44:38;100054.16;;;-1.55;41.75
19576;BME280;41589;51.196;7.074;2024-01-10T05:49:40;100060.91;;;-1.53;41.89
19576;BME280;41589;51.196;7.074;2024-01-10T05:54:40;100053.50;;;-1.49;41.85
19576;BME280;41589;51.196;7.074;2024-01-10T05:59:41;100046.84;;;-1.48;41.85
19576;BME280;41589;51.196;7.074;2024-01-10T06:04:41;100049.59;;;-1.48;41.50
19576;BME280;41589;51.196;7.074;2024-01-10T06:09:42;100060.66;;;-1.48;42.08
19576;BME280;41589;51.196;7.074;2024-01-10T06:14:43;100052.78;;;-1.46;41.71
19576;BME280;41589;51.196;7.074;2024-01-10T06:19:44;100057.97;;;-1.44;42.09
19576;BME280;41589;51.196;7.074;2024-01-10T06:24:44;100054.41;;;-1.45;41.44
19576;BME280;41589;51.196;7.074;2024-01-10T06:29:45;100051.03;;;-1.54;41.47
19576;BME280;41589;51.196;7.074;2024-01-10T06:34:45;100053.06;;;-1.51;42.03
19576;BME280;41589;51.196;7.074;2024-01-10T06:39:45;100047.41;;;-1.38;41.96
19576;BME280;41589;51.196;7.074;2024-01-10T06:44:46;100042.41;;;-1.33;42.14
19576;BME280;41589;51.196;7.074;2024-01-10T06:49:46;100040.38;;;-1.36;41.84
19576;BME280;41589;51.196;7.074;2024-01-10T06:54:47;100053.41;;;-1.36;42.08
19576;BME280;41589;51.196;7.074;2024-01-10T06:59:47;100039.22;;;-1.35;41.32
19576;BME280;41589;51.196;7.074;2024-01-10T07:04:48;100036.91;;;-1.33;41.99
19576;BME280;41589;51.196;7.074;2024-01-10T07:09:48;100037.75;;;-1.29;42.13
19576;BME280;41589;51.196;7.074;2024-01-10T07:14:48;100038.56;;;-1.28;41.99
19576;BME280;41589;51.196;7.074;2024-01-10T07:19:49;100041.63;;;-1.33;41.61
19576;BME280;41589;51.196;7.074;2024-01-10T07:24:49;100035.09;;;-1.25;41.68
19576;BME280;41589;51.196;7.074;2024-01-10T07:29:49;100041.44;;;-1.25;41.76
19576;BME280;41589;51.196;7.074;2024-01-10T07:34:50;100045.84;;;-1.20;41.71
19576;BME280;41589;51.196;7.074;2024-01-10T07:39:50;100051.56;;;-1.29;41.82
19576;BME280;41589;51.196;7.074;2024-01-10T07:44:50;100050.41;;;-1.28;42.05
19576;BME280;41589;51.196;7.074;2024-01-10T07:49:51;100052.13;;;-1.23;42.09
19576;BME280;41589;51.196;7.074;2024-01-10T07:54:51;100052.53;;;-1.21;41.55
19576;BME280;41589;51.196;7.074;2024-01-10T07:59:51;100047.75;;;-1.24;41.33
19576;BME280;41589;51.196;7.074;2024-01-10T08:04:52;100053.88;;;-1.15;41.55
19576;BME280;41589;51.196;7.074;2024-01-10T08:09:52;100057.81;;;-1.16;41.91
19576;BME280;41589;51.196;7.074;2024-01-10T08:14:53;100063.09;;;-1.07;41.33
19576;BME280;41589;51.196;7.074;2024-01-10T08:19:53;100066.84;;;-1.00;41.34
19576;BME280;41589;51.196;7.074;2024-01-10T08:24:53;100074.06;;;-0.95;41.65
19576;BME280;41589;51.196;7.074;2024-01-10T08:29:54;100073.31;;;-0.92;41.41
19576;BME280;41589;51.196;7.074;2024-01-10T08:34:54;100071.06;;;-0.87;41.82
19576;BME280;41589;51.196;7.074;2024-01-10T08:39:54;100073.53;;;-0.81;41.62
19576;BME280;41589;51.196;7.074;2024-01-10T08:44:55;100082.84;;;-0.70;41.92
19576;BME280;41589;51.196;7.074;2024-01-10T08:49:56;100071.50;;;-0.65;41.47
19576;BME280;41589;51.196;7.074;2024-01-10T08:54:56;100071.28;;;-0.57;41.64
19576;BME280;41589;51.196;7.074;2024-01-10T08:59:56;100081.03;;;-0.63;41.76
19576;BME280;41589;51.196;7.074;2024-01-10T09:04:57;100079.78;;;-0.46;42.38
19576;BME280;41589;51.196;7.074;2024-01-10T09:09:58;100079.56;;;-0.37;42.19
19576;BME280;41589;51.196;7.074;2024-01-10T09:14:58;100073.38;;;-0.31;42.06
19576;BME280;41589;51.196;7.074;2024-01-10T09:19:58;100075.53;;;-0.20;42.88
19576;BME280;41589;51.196;7.074;2024-01-10T09:24:59;100090.66;;;-0.14;42.56
19576;BME280;41589;51.196;7.074;2024-01-10T09:30:04;100089.19;;;-0.08;42.48
19576;BME280;41589;51.196;7.074;2024-01-10T09:35:10;100083.00;;;-0.02;42.50
19576;BME280;41589;51.196;7.074;2024-01-10T09:40:14;100082.81;;;0.11;43.37
19576;BME280;41589;51.196;7.074;2024-01-10T09:45:15;100092.41;;;0.17;43.04
19576;BME280;41589;51.196;7.074;2024-01-10T09:50:17;100092.59;;;0.27;42.90
19576;BME280;41589;51.196;7.074;2024-01-10T09:55:22;100098.94;;;0.51;43.05
19576;BME280;41589;51.196;7.074;2024-01-10T10:00:26;100096.75;;;0.64;43.18
19576;BME280;41589;51.196;7.074;2024-01-10T10:05:28;100106.41;;;0.73;43.31
19576;BME280;41589;51.196;7.074;2024-01-10T10:10:28;100109.34;;;0.84;42.98
19576;BME280;41589;51.196;7.074;2024-01-10T10:15:28;100098.81;;;0.97;43.10
19576;BME280;41589;51.196;7.074;2024-01-10T10:20:30;100107.28;;;1.07;42.68
19576;BME280;41589;51.196;7.074;2024-01-10T10:25:46;100095.91;;;1.16;42.83
19576;BME280;41589;51.196;7.074;2024-01-10T10:30:47;100098.84;;;1.27;42.54
19576;BME280;41589;51.196;7.074;2024-01-10T10:35:49;100092.66;;;1.40;43.25
19576;BME280;41589;51.196;7.074;2024-01-10T10:40:50;100093.53;;;1.44;42.95
19576;BME280;41589;51.196;7.074;2024-01-10T10:45:51;100089.97;;;1.47;42.39
19576;BME280;41589;51.196;7.074;2024-01-10T10:51:06;100087.72;;;1.57;42.76
19576;BME280;41589;51.196;7.074;2024-01-10T10:56:08;100082.31;;;1.71;42.80
19576;BME280;41589;51.196;7.074;2024-01-10T11:01:11;100081.66;;;1.85;42.61
19576;BME280;41589;51.196;7.074;2024-01-10T11:06:11;100067.56;;;2.00;42.28
19576;BME280;41589;51.196;7.074;2024-01-10T11:22:40;100085.25;;;2.26;41.54
19576;BME280;41589;51.196;7.074;2024-01-10T11:27:37;100067.13;;;2.39;41.85
19576;BME280;41589;51.196;7.074;2024-01-10T11:32:38;100068.00;;;2.50;41.90
19576;BME280;41589;51.196;7.074;2024-01-10T11:37:39;100070.47;;;2.62;42.16
19576;BME280;41589;51.196;7.074;2024-01-10T11:42:43;100056.63;;;2.73;41.46
19576;BME280;41589;51.196;7.074;2024-01-10T11:47:44;100061.47;;;2.80;41.64
19576;BME280;41589;51.196;7.074;2024-01-10T11:52:44;100061.13;;;2.92;41.31
19576;BME280;41589;51.196;7.074;2024-01-10T11:58:07;100059.63;;;3.09;41.30
19576;BME280;41589;51.196;7.074;2024-01-10T12:03:08;100050.13;;;3.13;41.15
19576;BME280;41589;51.196;7.074;2024-01-10T12:08:09;100055.63;;;3.10;41.24
19576;BME280;41589;51.196;7.074;2024-01-10T12:13:20;100042.97;;;3.12;41.08
19576;BME280;41589;51.196;7.074;2024-01-10T12:18:20;100046.53;;;3.13;40.67
19576;BME280;41589;51.196;7.074;2024-01-10T12:23:21;100035.00;;;3.11;41.38
19576;BME280;41589;51.196;7.074;2024-01-10T12:28:22;100042.56;;;3.17;40.73
19576;BME280;41589;51.196;7.074;2024-01-10T12:33:23;100052.09;;;3.16;40.59
19576;BME280;41589;51.196;7.074;2024-01-10T12:38:27;100043.00;;;3.23;40.66
19576;BME280;41589;51.196;7.074;2024-01-10T12:43:28;100045.78;;;3.23;40.42
19576;BME280;41589;51.196;7.074;2024-01-10T12:48:29;100041.78;;;3.20;40.95
19576;BME280;41589;51.196;7.074;2024-01-10T12:53:29;100045.00;;;3.30;41.06
19576;BME280;41589;51.196;7.074;2024-01-10T12:58:29;100044.22;;;3.29;40.49
19576;BME280;41589;51.196;7.074;2024-01-10T13:03:30;100039.88;;;3.39;41.30
19576;BME280;41589;51.196;7.074;2024-01-10T13:08:31;100038.72;;;3.43;41.17
19576;BME280;41589;51.196;7.074;2024-01-10T13:13:35;100048.66;;;3.51;41.39
19576;BME280;41589;51.196;7.074;2024-01-10T13:18:37;100045.94;;;3.66;41.47
19576;BME280;41589;51.196;7.074;2024-01-10T13:23:37;100051.91;;;3.64;40.82
19576;BME280;41589;51.196;7.074;2024-01-10T13:28:38;100048.31;;;3.64;40.42
19576;BME280;41589;51.196;7.074;2024-01-10T13:33:38;100034.41;;;3.67;40.34
19576;BME280;41589;51.196;7.074;2024-01-10T13:38:38;100053.78;;;3.39;40.95
19576;BME280;41589;51.196;7.074;2024-01-10T13:43:39;100058.56;;;3.38;41.17
19576;BME280;41589;51.196;7.074;2024-01-10T13:48:40;100054.25;;;3.55;41.53
19576;BME280;41589;51.196;7.074;2024-01-10T13:53:41;100057.44;;;3.54;41.14
19576;BME280;41589;51.196;7.074;2024-01-10T13:58:42;100069.38;;;3.61;41.17
19576;BME280;41589;51.196;7.074;2024-01-10T14:03:42;100070.97;;;3.62;41.67
19576;BME280;41589;51.196;7.074;2024-01-10T14:08:42;100072.19;;;3.65;41.41
19576;BME280;41589;51.196;7.074;2024-01-10T14:13:43;100073.31;;;3.46;40.23
19576;BME280;41589;51.196;7.074;2024-01-10T14:18:44;100084.00;;;3.37;41.28
19576;BME280;41589;51.196;7.074;2024-01-10T14:23:44;100078.38;;;3.22;41.57
19576;BME280;41589;51.196;7.074;2024-01-10T14:28:44;100083.09;;;3.15;40.98
19576;BME280;41589;51.196;7.074;2024-01-10T14:33:45;100078.03;;;3.38;41.97
19576;BME280;41589;51.196;7.074;2024-01-10T14:38:45;100074.00;;;3.25;41.06
19576;BME280;41589;51.196;7.074;2024-01-10T14:43:45;100081.13;;;3.19;41.30
19576;BME280;41589;51.196;7.074;2024-01-10T14:48:46;100083.56;;;3.28;41.71
19576;BME280;41589;51.196;7.074;2024-01-10T14:53:47;100085.53;;;3.24;41.97
19576;BME280;41589;51.196;7.074;2024-01-10T14:58:47;100085.19;;;3.36;42.20
19576;BME280;41589;51.196;7.074;2024-01-10T15:03:47;100071.22;;;3.25;42.14
19576;BME280;41589;51.196;7.074;2024-01-10T15:08:48;100079.94;;;3.20;41.73
19576;BME280;41589;51.196;7.074;2024-01-10T15:13:48;100074.31;;;3.09;41.57
19576;BME280;41589;51.196;7.074;2024-01-10T15:18:48;100074.56;;;2.83;41.72
19576;BME280;41589;51.196;7.074;2024-01-10T15:23:51;100072.19;;;2.81;42.28
19576;BME280;41589;51.196;7.074;2024-01-10T15:28:53;100083.97;;;2.64;41.68
19576;BME280;41589;51.196;7.074;2024-01-10T15:33:54;100081.22;;;2.68;42.15
19576;BME280;41589;51.196;7.074;2024-01-10T15:38:54;100075.19;;;2.58;42.53
19576;BME280;41589;51.196;7.074;2024-01-10T15:43:55;100087.97;;;2.67;41.99
19576;BME280;41589;51.196;7.074;2024-01-10T15:48:55;100099.75;;;2.49;42.21
19576;BME280;41589;51.196;7.074;2024-01-10T15:53:55;100101.03;;;2.59;42.61
19576;BME280;41589;51.196;7.074;2024-01-10T15:58:58;100098.19;;;2.55;43.08
19576;BME280;41589;51.196;7.074;2024-01-10T16:03:58;100107.41;;;2.63;42.87
19576;BME280;41589;51.196;7.074;2024-01-10T16:08:59;100102.63;;;2.63;43.12
19576;BME280;41589;51.196;7.074;2024-01-10T16:13:59;100104.59;;;2.59;42.44
19576;BME280;41589;51.196;7.074;2024-01-10T16:19:03;100100.97;;;2.52;42.98
19576;BME280;41589;51.196;7.074;2024-01-10T16:24:04;100104.16;;;2.54;43.38
19576;BME280;41589;51.196;7.074;2024-01-10T16:29:05;100110.88;;;2.49;42.74
19576;BME280;41589;51.196;7.074;2024-01-10T16:34:05;100118.34;;;2.42;42.75
19576;BME280;41589;51.196;7.074;2024-01-10T16:39:06;100124.28;;;2.40;43.44
19576;BME280;41589;51.196;7.074;2024-01-10T16:44:06;100131.75;;;2.32;43.00
19576;BME280;41589;51.196;7.074;2024-01-10T16:49:06;100141.28;;;2.35;43.46
19576;BME280;41589;51.196;7.074;2024-01-10T16:54:07;100134.53;;;2.32;43.52
19576;BME280;41589;51.196;7.074;2024-01-10T16:59:07;100135.25;;;2.26;43.57
19576;BME280;41589;51.196;7.074;2024-01-10T17:04:07;100128.91;;;2.25;43.68
19576;BME280;41589;51.196;7.074;2024-01-10T17:09:08;100130.88;;;2.25;43.34
19576;BME280;41589;51.196;7.074;2024-01-10T17:14:09;100131.66;;;2.22;43.69
19576;BME280;41589;51.196;7.074;2024-01-10T17:19:09;100139.97;;;2.18;43.57
19576;BME280;41589;51.196;7.074;2024-01-10T17:24:09;100133.94;;;2.13;43.95
19576;BME280;41589;51.196;7.074;2024-01-10T17:29:10;100136.72;;;2.13;44.34
19576;BME280;41589;51.196;7.074;2024-01-10T17:34:10;100135.53;;;2.14;43.99
19576;BME280;41589;51.196;7.074;2024-01-10T17:39:11;100141.47;;;2.12;44.15
19576;BME280;41589;51.196;7.074;2024-01-10T17:44:13;100136.69;;;2.09;43.81
19576;BME280;41589;51.196;7.074;2024-01-10T17:49:13;100139.00;;;2.03;44.56
19576;BME280;41589;51.196;7.074;2024-01-10T17:54:14;100140.56;;;2.01;44.68
19576;BME280;41589;51.196;7.074;2024-01-10T17:59:14;100128.19;;;1.95;44.63
19576;BME280;41589;51.196;7.074;2024-01-10T18:04:14;100136.47;;;1.91;45.01
19576;BME280;41589;51.196;7.074;2024-01-10T18:09:15;100146.69;;;1.84;44.83
19576;BME280;41589;51.196;7.074;2024-01-10T18:14:15;100144.66;;;1.77;45.01
19576;BME280;41589;51.196;7.074;2024-01-10T18:19:15;100153.38;;;1.75;45.65
19576;BME280;41589;51.196;7.074;2024-01-10T18:24:16;100157.66;;;1.69;45.65
19576;BME280;41589;51.196;7.074;2024-01-10T18:29:16;100169.44;;;1.63;45.28
19576;BME280;41589;51.196;7.074;2024-01-10T18:34:18;100177.38;;;1.61;45.85
19576;BME280;41589;51.196;7.074;2024-01-10T18:39:18;100174.22;;;1.62;45.87
19576;BME280;41589;51.196;7.074;2024-01-10T18:44:20;100177.38;;;1.61;45.82
19576;BME280;41589;51.196;7.074;2024-01-10T18:49:20;100183.28;;;1.59;45.69
19576;BME280;41589;51.196;7.074;2024-01-10T18:54:21;100181.66;;;1.55;46.10
19576;BME280;41589;51.196;7.074;2024-01-10T18:59:22;100189.13;;;1.51;45.83
19576;BME280;41589;51.196;7.074;2024-01-10T19:04:23;100197.03;;;1.48;46.24
19576;BME280;41589;51.196;7.074;2024-01-10T19:09:24;100201.75;;;1.44;46.41
19576;BME280;41589;51.196;7.074;2024-01-10T19:14:24;100215.13;;;1.39;46.44
19576;BME280;41589;51.196;7.074;2024-01-10T19:19:25;100208.28;;;1.33;46.47
19576;BME280;41589;51.196;7.074;2024-01-10T19:24:26;100213.38;;;1.27;46.86
19576;BME280;41589;51.196;7.074;2024-01-10T19:29:26;100211.78;;;1.26;46.38
19576;BME280;41589;51.196;7.074;2024-01-10T19:34:26;100212.06;;;1.21;47.06
19576;BME280;41589;51.196;7.074;2024-01-10T19:39:27;100214.94;;;1.25;46.68
19576;BME280;41589;51.196;7.074;2024-01-10T19:44:27;100212.16;;;1.25;47.02
19576;BME280;41589;51.196;7.074;2024-01-10T19:49:28;100212.53;;;1.23;47.24
19576;BME280;41589;51.196;7.074;2024-01-10T19:54:28;100225.84;;;1.14;46.82
19576;BME280;41589;51.196;7.074;2024-01-10T19:59:29;100217.16;;;1.15;46.89
19576;BME280;41589;51.196;7.074;2024-01-10T20:04:29;100220.78;;;1.19;46.84
19576;BME280;41589;51.196;7.074;2024-01-10T20:09:30;100228.28;;;1.19;47.09
19576;BME280;41589;51.196;7.074;2024-01-10T20:14:32;100223.13;;;1.17;47.41
19576;BME280;41589;51.196;7.074;2024-01-10T20:19:32;100221.53;;;1.16;47.39
19576;BME280;41589;51.196;7.074;2024-01-10T20:24:33;100221.09;;;1.14;47.24
19576;BME280;41589;51.196;7.074;2024-01-10T20:29:33;100219.50;;;1.13;47.32
19576;BME280;41589;51.196;7.074;2024-01-10T20:34:33;100229.81;;;1.13;47.45
19576;BME280;41589;51.196;7.074;2024-01-10T20:39:34;100224.25;;;1.13;47.64
19576;BME280;41589;51.196;7.074;2024-01-10T20:44:34;100221.47;;;1.13;47.51
19576;BME280;41589;51.196;7.074;2024-01-10T20:49:34;100221.47;;;1.13;47.90
19576;BME280;41589;51.196;7.074;2024-01-10T20:54:35;100234.91;;;1.11;47.61
19576;BME280;41589;51.196;7.074;2024-01-10T20:59:35;100226.91;;;1.06;47.68
19576;BME280;41589;51.196;7.074;2024-01-10T21:04:36;100256.53;;;1.02;48.01
19576;BME280;41589;51.196;7.074;2024-01-10T21:09:37;100251.81;;;1.02;48.11
19576;BME280;41589;51.196;7.074;2024-01-10T21:14:39;100260.06;;;0.99;48.22
19576;BME280;41589;51.196;7.074;2024-01-10T21:19:40;100257.66;;;0.97;47.90
19576;BME280;41589;51.196;7.074;2024-01-10T21:24:42;100257.91;;;0.88;47.75
19576;BME280;41589;51.196;7.074;2024-01-10T21:29:42;100260.25;;;0.86;48.15
19576;BME280;41589;51.196;7.074;2024-01-10T21:34:43;100252.25;;;0.81;48.47
19576;BME280;41589;51.196;7.074;2024-01-10T21:39:43;100248.22;;;0.79;48.47
19576;BME280;41589;51.196;7.074;2024-01-10T21:44:44;100250.72;;;0.84;48.83
19576;BME280;41589;51.196;7.074;2024-01-10T21:49:45;100267.41;;;0.87;48.74
19576;BME280;41589;51.196;7.074;2024-01-10T21:54:45;100268.56;;;0.86;49.42
19576;BME280;41589;51.196;7.074;2024-01-10T21:59:45;100272.50;;;0.85;48.74
19576;BME280;41589;51.196;7.074;2024-01-10T22:04:46;100280.03;;;0.85;48.88
19576;BME280;41589;51.196;7.074;2024-01-10T22:09:46;100281.56;;;0.82;49.11
19576;BME280;41589;51.196;7.074;2024-01-10T22:14:47;100288.28;;;0.81;48.91
19576;BME280;41589;51.196;7.074;2024-01-10T22:19:47;100285.88;;;0.80;49.25
19576;BME280;41589;51.196;7.074;2024-01-10T22:24:48;100291.78;;;0.78;48.99
19576;BME280;41589;51.196;7.074;2024-01-10T22:29:48;100301.22;;;0.74;49.09
19576;BME280;41589;51.196;7.074;2024-01-10T22:34:49;100303.25;;;0.77;49.21
19576;BME280;41589;51.196;7.074;2024-01-10T22:39:49;100304.09;;;0.81;49.75
19576;BME280;41589;51.196;7.074;2024-01-10T22:44:49;100307.25;;;0.79;49.05
19576;BME280;41589;51.196;7.074;2024-01-10T22:49:50;100303.25;;;0.77;49.32
19576;BME280;41589;51.196;7.074;2024-01-10T22:54:50;100295.34;;;0.79;49.80
19576;BME280;41589;51.196;7.074;2024-01-10T22:59:50;100304.03;;;0.77;49.52
19576;BME280;41589;51.196;7.074;2024-01-10T23:04:51;100301.28;;;0.77;50.17
19576;BME280;41589;51.196;7.074;2024-01-10T23:09:51;100315.56;;;0.79;49.71
19576;BME280;41589;51.196;7.074;2024-01-10T23:14:51;100319.44;;;0.75;49.97
19576;BME280;41589;51.196;7.074;2024-01-10T23:19:52;100309.09;;;0.72;49.50
19576;BME280;41589;51.196;7.074;2024-01-10T23:24:52;100305.81;;;0.66;49.63
19576;BME280;41589;51.196;7.074;2024-01-10T23:29:52;100304.22;;;0.65;49.51
19576;BME280;41589;51.196;7.074;2024-01-10T23:34:54;100315.72;;;0.67;50.13
19576;BME280;41589;51.196;7.074;2024-01-10T23:39:54;100304.97;;;0.62;50.05
19576;BME280;41589;51.196;7.074;2024-01-10T23:44:55;100312.47;;;0.62;50.05
19576;BME280;41589;51.196;7.074;2024-01-10T23:49:55;100307.66;;;0.58;50.22
19576;BME280;41589;51.196;7.074;2024-01-10T23:54:56;100304.88;;;0.58;50.28
19576;BME280;41589;51.196;7.074;2024-01-10T23:59:56;100311.16;;;0.55;50.26
